Columbus, OH

9:39 PM EST on March 04, 2015 (GMT -0500)
Wilson Hill | Change Station
CLOSE
Current Station
Personal Weather Station
Location: Worthington, OH
Elevation: 902 ft
Nearby Weather Stations
Active Advisory: Winter Weather Advisory Active Notice: Local Storm Report

Elev 902 ft 40.10 °N, 83.01 °W | Updated 8 minutes ago

Snow
Snow
26.6 °F
Feels Like 18 °F
N
8.3
Wind Variable Wind from NNW

Today
High -- | Low -- °F
--% Chance of Precip.
Yesterday
High -- | Low -- °F
Precip. -- in
7:01 AM 6:26 PM
Full, 100% visible
Pressure 30.11 in
Visibility 5.0 miles
Clouds Scattered Clouds 2100 ft
Overcast 3200 ft
Windchill 18 °F
Dew Point 21 °F
Humidity 79%
Rainfall 0.43 in
Snow Depth Not available.
UV 0 out of 12
Pollen .60 out of 12
Air Quality Not available.
Flu Activity Not available.
SPECI KOSU 050212Z 32012G22KT 5SM -SN SCT021 OVC032 M02/M06 A3011 RMK AO2 P0000 T10221056

More Conditions Fewer Conditions

Pressure 30.11 in
Visibility 5.0 miles
Clouds Scattered Clouds 2100 ft
Overcast 3200 ft
Windchill 18 °F
Dew Point 21 °F
Humidity 79%
Rainfall 0.43 in
Snow Depth Not available.
UV 0 out of 12
Pollen .60 out of 12
Air Quality Not available.
Flu Activity Not available.
SPECI KOSU 050212Z 32012G22KT 5SM -SN SCT021 OVC032 M02/M06 A3011 RMK AO2 P0000 T10221056

More Conditions Fewer Conditions

10-Day Weather Forecast

Almanac

Astronomy

Mar. 04, 2015 Rise Set
Actual Time
Civil Twilight
Nautical Twilight
Astronomical Twilight
Moon
Length of Visible Light
Length of Day
Tomorrow will be .
, % of the Moon is Illuminated

Today's Extremes

State Highs State Lows

Community

WunderPhotos

Upload Photos

1,802,631 photos uploaded!

WunderBlogs® & News

Nearby

Air Quality

  Air Quality AQ Index Pollutant
Not available.

Snow Depth

Station Depth Elevation

Earthquake Activity

City Distance Mag. Time & Date
Minimum magnitude displayed is 2.5.

Coastal Water Temperatures

Place Temperature

Nearby Weather Stations

Winter Weather Advisory
Statement as of 4:01 PM EST on March 04, 2015

... Winter Weather Advisory remains in effect until 1 PM EST
Thursday...

* hazard types... snow.

* Accumulations... snow accumulation of 1 to 3 inches.

* Timing... snow will increase in intensity this evening. The snow
will remain across the area tonight before diminishing Thursday
morning.

* Impacts... travel difficulties are expected due to reduced
visibilities and snow accumulations.


Precautionary/preparedness actions...

Remember... a Winter Weather Advisory for snow means that periods
of snow will cause primarily travel difficulties. Be prepared for
snow covered roads and limited visibilities... and use caution
while driving. Stay tuned to NOAA Weather Radio or your favorite
source of information for the latest updates. Additional details
can also be found at www.Weather.Gov/iln... as well as on our
facebook and twitter pages.